createdAt,value
2022-09-04T00:01:04.344Z,4.72
2022-09-04T00:03:37.047Z,4.45
2022-09-04T00:06:06.785Z,4.50
2022-09-04T00:08:44.381Z,4.75
2022-09-04T00:11:15.736Z,4.38
2022-09-04T00:13:45.672Z,4.20
2022-09-04T00:16:20.092Z,4.22
2022-09-04T00:18:50.837Z,4.35
2022-09-04T00:21:22.374Z,4.07
2022-09-04T00:23:53.629Z,4.30
2022-09-04T00:26:28.307Z,3.80
2022-09-04T00:28:57.951Z,3.60
2022-09-04T00:31:37.847Z,4.38
2022-09-04T00:34:13.942Z,3.78
2022-09-04T00:36:49.466Z,4.40
2022-09-04T00:39:20.971Z,4.15
2022-09-04T00:41:56.978Z,4.00
2022-09-04T00:44:34.635Z,4.22
2022-09-04T00:47:24.222Z,4.25
2022-09-04T00:50:02.213Z,4.30
2022-09-04T00:52:40.336Z,4.20
2022-09-04T00:55:19.376Z,4.22
2022-09-04T00:58:12.010Z,4.00
2022-09-04T01:00:41.002Z,4.22
2022-09-04T01:03:20.806Z,4.07
2022-09-04T01:05:59.699Z,4.07
2022-09-04T01:08:40.773Z,4.43
2022-09-04T01:11:13.064Z,3.97
2022-09-04T01:13:44.283Z,4.30
2022-09-04T01:16:15.843Z,3.70
2022-09-04T01:18:49.507Z,4.18
2022-09-04T01:21:30.992Z,3.95
2022-09-04T01:24:19.940Z,3.90
2022-09-04T01:26:55.477Z,3.80
2022-09-04T01:29:28.513Z,4.40
2022-09-04T01:31:59.310Z,3.70
2022-09-04T01:34:40.225Z,4.07
2022-09-04T01:37:16.656Z,4.18
2022-09-04T01:39:47.582Z,4.32
2022-09-04T01:42:22.876Z,4.43
2022-09-04T01:44:51.586Z,4.90
2022-09-04T01:47:25.647Z,4.57
2022-09-04T01:49:59.599Z,4.18
2022-09-04T01:52:38.014Z,4.20
2022-09-04T01:55:12.224Z,4.50
2022-09-04T01:57:48.155Z,4.30
2022-09-04T02:00:18.486Z,4.30
2022-09-04T02:02:57.664Z,4.68
2022-09-04T02:05:30.462Z,4.50
2022-09-04T02:08:06.325Z,4.47
2022-09-04T02:10:38.986Z,4.63
2022-09-04T02:13:16.219Z,4.70
2022-09-04T02:15:49.353Z,4.47
2022-09-04T02:18:23.997Z,4.43
2022-09-04T02:20:56.279Z,4.43
2022-09-04T02:23:32.401Z,4.78
2022-09-04T02:26:04.743Z,4.53
2022-09-04T02:28:39.046Z,4.28
2022-09-04T02:31:11.232Z,4.53
2022-09-04T02:33:44.338Z,4.00
2022-09-04T02:36:15.800Z,4.30
2022-09-04T02:38:48.286Z,4.32
2022-09-04T02:41:21.315Z,4.40
2022-09-04T02:44:00.051Z,4.47
2022-09-04T02:46:32.907Z,4.28
2022-09-04T02:49:07.447Z,3.60
2022-09-04T02:51:53.415Z,3.97
2022-09-04T02:54:40.411Z,3.75
2022-09-04T02:57:21.684Z,3.90
2022-09-04T03:00:04.760Z,3.58
2022-09-04T03:02:39.053Z,3.97
2022-09-04T03:05:18.779Z,3.60
2022-09-04T03:07:52.333Z,3.90
2022-09-04T03:10:26.226Z,3.63
2022-09-04T03:13:01.413Z,4.30
2022-09-04T03:15:38.429Z,3.72
2022-09-04T03:18:17.098Z,3.20
2022-09-04T03:20:52.904Z,3.58
2022-09-04T03:23:25.181Z,3.53
2022-09-04T03:26:11.089Z,3.53
2022-09-04T03:28:51.987Z,3.33
2022-09-04T03:31:30.051Z,3.58
2022-09-04T03:34:14.115Z,3.45
2022-09-04T03:36:52.094Z,3.30
2022-09-04T03:39:27.134Z,3.40
2022-09-04T03:42:05.915Z,3.40
2022-09-04T03:44:46.350Z,3.70
2022-09-04T03:47:31.530Z,4.13
2022-09-04T03:50:12.510Z,3.55
2022-09-04T03:52:50.677Z,3.38
2022-09-04T03:55:41.155Z,3.80
2022-09-04T03:58:23.008Z,4.65
2022-09-04T04:00:58.802Z,5.93
2022-09-04T04:03:47.114Z,6.43
2022-09-04T04:06:24.739Z,5.82
2022-09-04T04:09:11.942Z,5.63
2022-09-04T04:11:47.997Z,5.32
2022-09-04T04:14:23.735Z,5.53
2022-09-04T04:16:56.529Z,5.75
2022-09-04T04:19:42.942Z,7.40
2022-09-04T04:22:19.482Z,7.82
2022-09-04T04:24:56.007Z,7.65
2022-09-04T04:27:33.557Z,7.65
2022-09-04T04:30:07.449Z,6.55
2022-09-04T04:32:43.980Z,7.25
2022-09-04T04:35:19.188Z,6.43
2022-09-04T04:37:54.297Z,8.30
2022-09-04T04:40:28.250Z,7.68
2022-09-04T04:43:00.549Z,7.80
2022-09-04T04:45:49.382Z,6.70
2022-09-04T04:48:30.743Z,6.30
2022-09-04T04:51:05.425Z,6.32
2022-09-04T04:53:38.379Z,7.22
2022-09-04T04:56:15.564Z,6.43
2022-09-04T04:58:54.938Z,6.43
2022-09-04T05:01:35.729Z,6.78
2022-09-04T05:04:11.691Z,7.20
2022-09-04T05:06:44.015Z,7.68
2022-09-04T05:09:15.320Z,7.00
2022-09-04T05:11:48.781Z,6.75
2022-09-04T05:14:22.633Z,7.15
2022-09-04T05:16:56.779Z,6.32
2022-09-04T05:19:31.699Z,6.47
2022-09-04T05:22:06.888Z,6.60
2022-09-04T05:24:38.620Z,6.75
2022-09-04T05:27:12.252Z,6.40
2022-09-04T05:29:47.576Z,6.18
2022-09-04T05:32:19.652Z,5.63
2022-09-04T05:34:59.546Z,5.88
2022-09-04T05:37:31.905Z,5.55
2022-09-04T05:40:04.455Z,5.97
2022-09-04T05:42:50.661Z,6.10
2022-09-04T05:45:23.998Z,5.63
2022-09-04T05:47:58.573Z,5.95
2022-09-04T05:50:39.129Z,5.40
2022-09-04T05:53:28.522Z,5.97
2022-09-04T05:56:20.533Z,5.50
2022-09-04T05:59:03.064Z,5.93
2022-09-04T06:01:52.047Z,5.18
2022-09-04T06:04:38.537Z,5.60
2022-09-04T06:07:14.077Z,5.20
2022-09-04T06:09:51.698Z,5.35
2022-09-04T06:12:31.082Z,5.40
2022-09-04T06:15:09.414Z,5.38
2022-09-04T06:17:43.237Z,4.93
2022-09-04T06:20:20.897Z,5.03
2022-09-04T06:23:04.465Z,5.20
2022-09-04T06:25:42.187Z,4.70
2022-09-04T06:28:19.879Z,4.80
2022-09-04T06:30:57.870Z,5.00
2022-09-04T06:33:34.040Z,4.57
2022-09-04T06:36:15.406Z,4.63
2022-09-04T06:38:51.453Z,4.53
2022-09-04T06:41:32.879Z,4.70
2022-09-04T06:44:08.081Z,4.60
2022-09-04T06:46:40.111Z,4.70
2022-09-04T06:49:13.293Z,4.03
2022-09-04T06:52:00.854Z,4.35
2022-09-04T06:54:43.529Z,4.10
2022-09-04T06:57:31.630Z,3.90
2022-09-04T07:00:08.951Z,4.60
2022-09-04T07:02:54.890Z,4.20
2022-09-04T07:05:27.018Z,3.90
2022-09-04T07:08:02.451Z,4.18
2022-09-04T07:10:42.203Z,3.92
2022-09-04T07:13:23.717Z,3.97
2022-09-04T07:16:03.157Z,3.90
2022-09-04T07:19:08.808Z,3.50
2022-09-04T07:21:52.239Z,3.63
2022-09-04T07:24:45.490Z,4.00
2022-09-04T07:27:18.951Z,3.95
2022-09-04T07:29:54.431Z,3.47
2022-09-04T07:32:35.175Z,4.03
2022-09-04T07:35:12.107Z,3.40
2022-09-04T07:37:47.181Z,3.80
2022-09-04T07:40:18.495Z,3.80
2022-09-04T07:42:51.948Z,4.05
2022-09-04T07:45:39.464Z,4.10
2022-09-04T07:48:24.008Z,4.22
2022-09-04T07:51:05.991Z,4.57
2022-09-04T07:54:09.150Z,5.32
2022-09-04T07:56:56.104Z,5.78
2022-09-04T07:59:43.812Z,5.85
2022-09-04T08:02:35.714Z,7.45
2022-09-04T08:05:21.376Z,6.75
2022-09-04T08:08:29.638Z,6.75
2022-09-04T08:11:19.361Z,6.97
2022-09-04T08:14:16.817Z,6.35
2022-09-04T08:16:53.501Z,5.65
2022-09-04T08:19:35.895Z,4.05
2022-09-04T08:22:07.881Z,3.53
2022-09-04T08:25:06.455Z,3.90
2022-09-04T08:27:56.439Z,4.80
2022-09-04T08:30:24.678Z,5.60
2022-09-04T08:33:21.879Z,6.82
2022-09-04T08:35:57.615Z,7.88
2022-09-04T08:38:45.920Z,5.10
2022-09-04T08:41:54.899Z,4.65
2022-09-04T08:45:09.215Z,6.13
2022-09-04T08:48:11.226Z,6.65
2022-09-04T08:51:03.005Z,6.95
2022-09-04T08:54:11.045Z,7.28
2022-09-04T08:56:47.411Z,7.25
2022-09-04T08:59:57.715Z,7.03
2022-09-04T09:03:22.916Z,4.78
2022-09-04T09:06:29.693Z,7.70
2022-09-04T09:09:33.915Z,10.40
2022-09-04T09:12:22.908Z,10.98
2022-09-04T09:15:24.518Z,10.23
2022-09-04T09:18:03.647Z,11.77
2022-09-04T09:20:33.036Z,9.88
2022-09-04T09:23:20.870Z,11.50
2022-09-04T09:25:54.821Z,10.48
2022-09-04T09:28:41.304Z,8.27
2022-09-04T09:31:28.292Z,8.65
2022-09-04T09:34:11.606Z,8.82
2022-09-04T09:37:00.280Z,12.70
2022-09-04T09:39:39.416Z,7.70
2022-09-04T09:42:31.974Z,9.93
2022-09-04T09:45:20.442Z,15.35
2022-09-04T09:48:11.051Z,9.80
2022-09-04T09:51:00.948Z,8.05
2022-09-04T09:53:47.216Z,8.63
2022-09-04T09:56:53.629Z,8.43
2022-09-04T09:59:41.027Z,10.05
2022-09-04T10:02:23.292Z,13.95
2022-09-04T10:05:10.469Z,13.77
2022-09-04T10:08:01.443Z,10.57
2022-09-04T10:10:48.259Z,13.05
2022-09-04T10:13:34.460Z,19.67
2022-09-04T10:16:21.756Z,13.07
2022-09-04T10:19:03.722Z,9.25
2022-09-04T10:21:52.905Z,10.35
2022-09-04T10:24:39.689Z,11.73
2022-09-04T10:27:25.934Z,12.57
2022-09-04T10:30:12.687Z,9.05
2022-09-04T10:32:54.317Z,8.93
2022-09-04T10:35:25.588Z,13.40
2022-09-04T10:38:08.854Z,12.60
2022-09-04T10:40:44.507Z,8.70
2022-09-04T10:43:24.763Z,6.65
2022-09-04T10:46:01.134Z,7.30
2022-09-04T10:48:49.928Z,10.73
2022-09-04T10:51:37.614Z,15.32
2022-09-04T10:54:30.057Z,18.67
2022-09-04T10:57:06.848Z,17.02
2022-09-04T10:59:50.738Z,20.08
2022-09-04T11:02:39.964Z,14.40
2022-09-04T11:05:21.784Z,18.55
2022-09-04T11:08:13.940Z,19.63
2022-09-04T11:10:54.342Z,25.08
2022-09-04T11:13:38.114Z,18.30
2022-09-04T11:16:22.352Z,25.45
2022-09-04T11:19:20.002Z,28.98
2022-09-04T11:22:14.677Z,33.40
2022-09-04T11:25:19.112Z,35.28
2022-09-04T11:28:08.376Z,33.55
2022-09-04T11:30:52.228Z,35.33
2022-09-04T11:33:41.561Z,40.58
2022-09-04T11:36:36.150Z,42.20
2022-09-04T11:39:26.237Z,24.95
2022-09-04T11:42:06.139Z,36.63
2022-09-04T11:45:00.573Z,39.08
2022-09-04T11:47:49.772Z,38.72
2022-09-04T11:50:28.708Z,42.47
2022-09-04T11:53:11.398Z,41.25
2022-09-04T11:55:52.794Z,45.22
2022-09-04T11:58:42.302Z,50.58
2022-09-04T12:01:22.593Z,32.63
2022-09-04T12:04:02.328Z,23.90
2022-09-04T12:06:38.120Z,39.20
2022-09-04T12:09:15.820Z,45.55
2022-09-04T12:12:08.018Z,50.20
2022-09-04T12:14:53.978Z,25.42
2022-09-04T12:17:35.544Z,21.38
2022-09-04T12:20:24.366Z,32.80
2022-09-04T12:23:11.000Z,17.35
2022-09-04T12:25:48.247Z,25.88
2022-09-04T12:28:34.014Z,33.30
2022-09-04T12:31:09.495Z,39.15
2022-09-04T12:33:56.775Z,43.00
2022-09-04T12:36:53.308Z,35.33
2022-09-04T12:39:28.215Z,46.75
2022-09-04T12:42:03.477Z,46.78
2022-09-04T12:44:38.651Z,52.28
2022-09-04T12:47:14.202Z,25.45
2022-09-04T12:50:00.602Z,21.75
2022-09-04T12:52:38.850Z,21.80
2022-09-04T12:55:10.073Z,27.17
2022-09-04T12:57:46.790Z,14.00
2022-09-04T13:00:17.626Z,12.43
2022-09-04T13:02:50.153Z,9.43
2022-09-04T13:05:33.526Z,8.30
2022-09-04T13:08:09.351Z,7.90
2022-09-04T13:10:42.335Z,9.15
2022-09-04T13:13:17.543Z,10.70
2022-09-04T13:15:52.665Z,6.63
2022-09-04T13:18:26.479Z,6.68
2022-09-04T13:21:00.578Z,6.70
2022-09-04T13:23:42.801Z,5.18
2022-09-04T13:26:29.685Z,6.85
2022-09-04T13:29:05.427Z,9.80
2022-09-04T13:31:43.875Z,8.27
2022-09-04T13:34:16.912Z,6.60
2022-09-04T13:36:54.089Z,10.82
2022-09-04T13:39:34.796Z,10.30
2022-09-04T13:42:30.873Z,13.43
2022-09-04T13:45:05.680Z,10.45
2022-09-04T13:47:39.656Z,9.13
2022-09-04T13:50:10.326Z,9.18
2022-09-04T13:52:41.180Z,5.70
2022-09-04T13:55:11.767Z,5.70
2022-09-04T13:57:42.703Z,4.57
2022-09-04T14:00:14.350Z,4.70
2022-09-04T14:02:44.307Z,7.03
2022-09-04T14:05:13.989Z,5.43
2022-09-04T14:07:45.323Z,4.82
2022-09-04T14:10:15.513Z,5.47
2022-09-04T14:13:04.883Z,4.32
2022-09-04T14:15:47.169Z,6.47
2022-09-04T14:18:21.884Z,5.43
2022-09-04T14:21:01.520Z,4.70
2022-09-04T14:23:38.939Z,5.22
2022-09-04T14:26:12.493Z,5.18
2022-09-04T14:28:48.114Z,12.90
2022-09-04T14:31:22.715Z,5.28
2022-09-04T14:33:58.123Z,3.83
2022-09-04T14:36:35.646Z,10.18
2022-09-04T14:39:22.186Z,7.93
2022-09-04T14:42:02.654Z,5.53
2022-09-04T14:44:39.217Z,6.57
2022-09-04T14:47:12.805Z,6.68
2022-09-04T14:49:47.091Z,6.68
2022-09-04T14:52:18.455Z,11.63
2022-09-04T14:54:49.119Z,8.00
2022-09-04T14:57:21.187Z,7.15
2022-09-04T14:59:54.938Z,9.30
2022-09-04T15:02:27.937Z,12.32
2022-09-04T15:05:01.337Z,5.65
2022-09-04T15:07:34.341Z,6.35
2022-09-04T15:10:24.525Z,6.80
2022-09-04T15:12:55.253Z,10.77
2022-09-04T15:15:26.286Z,9.90
2022-09-04T15:18:01.835Z,9.23
2022-09-04T15:20:32.131Z,5.88
2022-09-04T15:23:02.869Z,5.20
2022-09-04T15:25:58.100Z,7.88
2022-09-04T15:28:29.787Z,4.47
2022-09-04T15:31:04.779Z,3.95
2022-09-04T15:33:34.683Z,6.25
2022-09-04T15:36:05.620Z,4.10
2022-09-04T15:38:34.221Z,5.95
2022-09-04T15:41:16.506Z,5.10
2022-09-04T15:43:48.703Z,4.43
2022-09-04T15:46:25.191Z,5.10
2022-09-04T15:48:59.639Z,12.23
2022-09-04T15:51:38.905Z,7.40
2022-09-04T15:54:16.094Z,6.82
2022-09-04T15:56:47.283Z,4.60
2022-09-04T15:59:18.851Z,5.10
2022-09-04T16:01:50.944Z,7.50
2022-09-04T16:04:23.353Z,7.63
2022-09-04T16:06:54.581Z,5.55
2022-09-04T16:09:26.136Z,7.22
2022-09-04T16:12:03.038Z,7.35
2022-09-04T16:14:34.311Z,5.65
2022-09-04T16:17:04.072Z,5.10
2022-09-04T16:19:37.211Z,5.18
2022-09-04T16:22:10.846Z,4.45
2022-09-04T16:24:42.807Z,4.13
2022-09-04T16:27:13.687Z,6.30
2022-09-04T16:29:46.324Z,4.50
2022-09-04T16:32:21.578Z,5.05
2022-09-04T16:34:53.910Z,5.35
2022-09-04T16:37:25.082Z,5.63
2022-09-04T16:40:01.579Z,4.57
2022-09-04T16:42:31.492Z,5.13
2022-09-04T16:45:03.847Z,5.18
2022-09-04T16:47:37.189Z,5.05
2022-09-04T16:50:13.499Z,5.10
2022-09-04T16:52:46.348Z,5.10
2022-09-04T16:55:21.655Z,4.97
2022-09-04T16:57:53.883Z,10.40
2022-09-04T17:00:24.224Z,10.30
2022-09-04T17:02:56.646Z,14.73
2022-09-04T17:05:35.104Z,18.55
2022-09-04T17:08:07.650Z,14.40
2022-09-04T17:10:39.225Z,14.57
2022-09-04T17:13:12.260Z,16.33
2022-09-04T17:15:53.811Z,17.10
2022-09-04T17:18:24.364Z,13.57
2022-09-04T17:26:49.558Z,13.48
2022-09-04T17:29:04.280Z,11.35
2022-09-04T17:29:15.231Z,14.93
2022-09-04T17:29:38.352Z,13.68
2022-09-04T17:36:32.827Z,15.20
2022-09-04T17:40:38.752Z,16.58
2022-09-04T17:40:57.152Z,17.13
2022-09-04T17:41:40.329Z,17.30
2022-09-04T17:44:13.892Z,17.90
2022-09-04T17:46:49.790Z,17.38
2022-09-04T17:49:22.127Z,17.38
2022-09-04T17:52:01.635Z,18.55
2022-09-04T17:54:33.953Z,17.23
2022-09-04T17:57:07.275Z,18.25
2022-09-04T17:59:45.499Z,17.80
2022-09-04T18:02:19.222Z,18.17
2022-09-04T18:04:54.739Z,17.75
2022-09-04T18:08:07.781Z,17.92
2022-09-04T18:10:28.592Z,18.60
2022-09-04T18:13:08.899Z,18.45
2022-09-04T18:16:03.183Z,15.32
2022-09-04T18:18:40.583Z,12.82
2022-09-04T18:21:17.340Z,11.80
2022-09-04T18:23:55.992Z,10.93
2022-09-04T18:26:40.737Z,10.70
2022-09-04T18:30:10.044Z,11.80
2022-09-04T18:37:08.251Z,9.68
2022-09-04T18:37:18.216Z,8.30
2022-09-04T18:38:04.963Z,7.72
2022-09-04T18:41:49.478Z,6.70
2022-09-04T18:48:54.931Z,5.88
2022-09-04T18:50:33.995Z,5.57
2022-09-04T18:50:45.999Z,4.93
2022-09-04T18:52:06.223Z,5.03
2022-09-04T18:54:39.813Z,4.53
2022-09-04T18:57:31.993Z,4.55
2022-09-04T19:00:09.548Z,4.30
2022-09-04T19:02:53.596Z,4.20
2022-09-04T19:05:24.240Z,4.07
2022-09-04T19:07:55.059Z,4.45
2022-09-04T19:10:28.718Z,4.03
2022-09-04T19:13:03.445Z,4.60
2022-09-04T19:15:48.163Z,4.03
2022-09-04T19:18:22.510Z,3.92
2022-09-04T19:20:56.773Z,4.00
2022-09-04T19:23:30.579Z,3.83
2022-09-04T19:26:08.737Z,3.72
2022-09-04T19:28:52.411Z,4.00
2022-09-04T19:31:29.984Z,4.22
2022-09-04T19:34:00.140Z,4.60
2022-09-04T19:36:35.439Z,4.75
2022-09-04T19:45:55.414Z,5.03
2022-09-04T19:46:02.490Z,4.68
2022-09-04T19:46:17.279Z,4.43
2022-09-04T19:47:57.605Z,4.07
2022-09-04T19:53:18.472Z,4.30
2022-09-04T19:53:38.706Z,4.03
2022-09-04T19:56:12.827Z,3.72
2022-09-04T19:58:44.051Z,4.05
2022-09-04T20:01:16.421Z,4.10
2022-09-04T20:03:51.896Z,4.13
2022-09-04T20:06:22.539Z,3.92
2022-09-04T20:08:56.857Z,3.88
2022-09-04T20:11:34.978Z,3.47
2022-09-04T20:14:13.908Z,3.70
2022-09-04T20:16:48.267Z,3.83
2022-09-04T20:19:27.850Z,3.63
2022-09-04T20:22:03.666Z,3.88
2022-09-04T20:24:37.617Z,3.67
2022-09-04T20:27:09.483Z,3.35
2022-09-04T20:29:39.644Z,3.47
2022-09-04T20:32:10.632Z,3.65
2022-09-04T20:34:44.782Z,3.28
2022-09-04T20:37:23.105Z,3.45
2022-09-04T20:39:55.360Z,3.20
2022-09-04T20:42:26.610Z,3.30
2022-09-04T20:46:52.699Z,3.22
2022-09-04T20:52:45.581Z,3.40
2022-09-04T20:52:54.744Z,3.38
2022-09-04T20:53:47.139Z,3.55
2022-09-04T20:56:55.551Z,3.15
2022-09-04T21:02:09.339Z,3.50
2022-09-04T21:03:24.515Z,3.65
2022-09-04T21:05:09.437Z,3.20
2022-09-04T21:07:41.651Z,3.47
2022-09-04T21:10:13.864Z,3.50
2022-09-04T21:12:44.781Z,3.30
2022-09-04T21:15:16.735Z,3.40
2022-09-04T21:18:15.343Z,3.50
2022-09-04T21:21:00.337Z,3.50
2022-09-04T21:23:54.428Z,3.55
2022-09-04T21:26:39.567Z,3.08
2022-09-04T21:29:18.073Z,3.60
2022-09-04T21:32:03.317Z,3.78
2022-09-04T21:34:55.526Z,3.30
2022-09-04T21:37:28.704Z,3.60
2022-09-04T21:40:33.592Z,3.58
2022-09-04T21:43:16.447Z,3.42
2022-09-04T21:45:52.058Z,3.42
2022-09-04T21:48:41.559Z,3.20
2022-09-04T21:51:28.688Z,3.40
2022-09-04T21:54:09.950Z,3.30
2022-09-04T22:02:28.427Z,3.50
2022-09-04T22:02:40.624Z,3.40
2022-09-04T22:03:13.984Z,3.28
2022-09-04T22:05:49.546Z,3.30
2022-09-04T22:12:07.781Z,3.42
2022-09-04T22:13:41.885Z,3.70
2022-09-04T22:14:11.566Z,3.40
2022-09-04T22:16:55.298Z,3.78
2022-09-04T22:19:38.866Z,3.88
2022-09-04T22:22:16.411Z,3.95
2022-09-04T22:24:54.875Z,3.88
2022-09-04T22:28:07.264Z,3.78
2022-09-04T22:30:33.634Z,4.80
2022-09-04T22:33:21.585Z,4.25
2022-09-04T22:36:05.337Z,4.50
2022-09-04T22:38:36.869Z,4.68
2022-09-04T22:41:23.239Z,5.07
2022-09-04T22:43:57.197Z,5.10
2022-09-04T22:46:33.785Z,4.47
2022-09-04T22:49:23.290Z,5.00
2022-09-04T22:52:10.215Z,5.00
2022-09-04T22:54:49.929Z,5.07
2022-09-04T22:57:24.038Z,5.90
2022-09-04T23:00:04.784Z,5.75
2022-09-04T23:03:07.022Z,5.50
2022-09-04T23:05:38.914Z,6.50
2022-09-04T23:13:46.603Z,6.43
2022-09-04T23:13:53.496Z,6.13
2022-09-04T23:14:20.125Z,6.03
2022-09-04T23:17:15.075Z,5.82
2022-09-04T23:26:34.142Z,6.75
2022-09-04T23:26:43.931Z,6.15
2022-09-04T23:26:46.817Z,6.90
2022-09-04T23:29:08.668Z,6.47
2022-09-04T23:31:51.524Z,6.03
2022-09-04T23:34:46.295Z,6.35
2022-09-04T23:37:34.287Z,7.32
2022-09-04T23:40:23.860Z,7.18
2022-09-04T23:43:10.922Z,6.97
2022-09-04T23:46:01.848Z,6.38
2022-09-04T23:48:48.339Z,7.07
2022-09-04T23:51:23.215Z,6.70
2022-09-04T23:53:57.484Z,6.32
2022-09-04T23:56:29.455Z,6.47
2022-09-04T23:59:35.799Z,6.47
